createdAt,value
2022-09-12T00:02:08.898Z,101070.41
2022-09-12T00:04:36.626Z,101079.13
2022-09-12T00:07:04.416Z,101087.22
2022-09-12T00:09:32.427Z,101077.66
2022-09-12T00:12:00.225Z,101083.69
2022-09-12T00:14:27.935Z,101077.56
2022-09-12T00:16:59.259Z,101070.88
2022-09-12T00:19:27.275Z,101072.72
2022-09-12T00:21:55.097Z,101063.16
2022-09-12T00:24:23.411Z,101064.91
2022-09-12T00:26:51.126Z,101071.25
2022-09-12T00:29:22.589Z,101067.63
2022-09-12T00:31:50.547Z,101069.44
2022-09-12T00:34:19.610Z,101071.25
2022-09-12T00:36:47.407Z,101065.13
2022-09-12T00:39:17.772Z,101068.75
2022-09-12T00:41:45.566Z,101061.63
2022-09-12T00:44:45.425Z,101052.84
2022-09-12T00:47:17.820Z,101056.28
2022-09-12T00:49:51.205Z,101052.88
2022-09-12T00:52:25.384Z,101053.91
2022-09-12T00:54:57.549Z,101049.53
2022-09-12T00:57:29.571Z,101054.84
2022-09-12T01:00:00.555Z,101060.03
2022-09-12T01:02:29.095Z,101047.91
2022-09-12T01:04:58.424Z,101044.63
2022-09-12T01:07:26.152Z,101046.63
2022-09-12T01:09:54.208Z,101047.44
2022-09-12T01:12:22.470Z,101035.06
2022-09-12T01:14:50.363Z,101046.56
2022-09-12T01:17:18.084Z,101045.91
2022-09-12T01:20:09.767Z,101038.00
2022-09-12T01:23:03.508Z,101039.56
2022-09-12T01:25:35.575Z,101042.34
2022-09-12T01:28:25.575Z,101046.69
2022-09-12T01:31:01.274Z,101039.69
2022-09-12T01:33:56.422Z,101037.16
2022-09-12T01:36:35.768Z,101039.63
2022-09-12T01:39:06.153Z,101043.25
2022-09-12T01:41:44.669Z,101039.69
2022-09-12T01:44:24.037Z,101040.00
2022-09-12T01:46:58.820Z,101034.59
2022-09-12T01:49:30.486Z,101032.97
2022-09-12T01:52:02.362Z,101030.41
2022-09-12T01:54:36.975Z,101032.22
2022-09-12T01:57:12.145Z,101030.44
2022-09-12T01:59:44.748Z,101023.59
2022-09-12T02:02:17.923Z,101032.22
2022-09-12T02:04:52.194Z,101024.25
2022-09-12T02:07:24.687Z,101025.34
2022-09-12T02:09:55.927Z,101021.94
2022-09-12T02:12:30.494Z,101016.97
2022-09-12T02:15:03.273Z,101015.00
2022-09-12T02:17:37.602Z,101017.78
2022-09-12T02:20:17.767Z,101016.91
2022-09-12T02:23:01.567Z,101010.84
2022-09-12T02:25:30.870Z,101011.88
2022-09-12T02:28:05.365Z,101014.53
2022-09-12T02:30:40.899Z,101015.50
2022-09-12T02:33:14.553Z,101010.38
2022-09-12T02:35:50.336Z,101012.22
2022-09-12T02:38:25.767Z,101015.75
2022-09-12T02:40:53.831Z,101007.94
2022-09-12T02:43:21.657Z,101007.94
2022-09-12T02:45:49.544Z,101004.38
2022-09-12T02:48:23.503Z,101007.88
2022-09-12T02:50:51.524Z,100997.44
2022-09-12T02:53:20.164Z,100998.28
2022-09-12T02:55:48.315Z,100994.81
2022-09-12T02:58:19.397Z,100990.59
2022-09-12T03:00:53.106Z,100990.69
2022-09-12T03:03:44.077Z,100991.66
2022-09-12T03:06:19.225Z,100985.63
2022-09-12T03:09:00.308Z,100979.56
2022-09-12T03:12:00.533Z,100982.06
2022-09-12T03:14:43.764Z,100986.41
2022-09-12T03:17:22.693Z,100992.53
2022-09-12T03:20:00.587Z,100985.50
2022-09-12T03:22:34.951Z,100996.31
2022-09-12T03:25:12.345Z,100989.28
2022-09-12T03:27:46.865Z,100991.88
2022-09-12T03:30:14.618Z,101001.56
2022-09-12T03:32:47.675Z,100999.06
2022-09-12T03:35:22.707Z,100992.25
2022-09-12T03:37:51.731Z,100994.75
2022-09-12T03:40:19.911Z,100994.06
2022-09-12T03:42:47.714Z,100995.81
2022-09-12T03:45:16.566Z,100998.44
2022-09-12T03:47:44.437Z,100997.63
2022-09-12T03:50:12.486Z,100993.19
2022-09-12T03:52:41.853Z,100993.19
2022-09-12T03:55:09.951Z,100999.44
2022-09-12T03:57:37.828Z,100988.00
2022-09-12T04:00:07.290Z,100988.88
2022-09-12T04:02:40.386Z,100987.09
2022-09-12T04:05:08.494Z,100992.44
2022-09-12T04:07:36.429Z,100983.63
2022-09-12T04:10:06.303Z,100976.75
2022-09-12T04:12:35.592Z,100978.44
2022-09-12T04:15:03.421Z,100972.34
2022-09-12T04:17:31.596Z,100978.41
2022-09-12T04:19:59.350Z,100974.09
2022-09-12T04:22:27.376Z,100974.13
2022-09-12T04:24:55.336Z,100973.22
2022-09-12T04:27:24.528Z,100980.31
2022-09-12T04:29:53.382Z,100971.53
2022-09-12T04:32:22.161Z,100970.66
2022-09-12T04:34:49.974Z,100980.44
2022-09-12T04:37:18.023Z,100978.59
2022-09-12T04:39:45.795Z,100973.44
2022-09-12T04:42:13.551Z,100968.16
2022-09-12T04:44:42.735Z,100968.22
2022-09-12T04:47:10.482Z,100970.84
2022-09-12T04:49:38.267Z,100977.81
2022-09-12T04:52:06.350Z,100962.97
2022-09-12T04:54:34.227Z,100966.53
2022-09-12T04:57:01.945Z,100964.72
2022-09-12T04:59:30.157Z,100961.22
2022-09-12T05:01:59.276Z,100959.53
2022-09-12T05:04:27.048Z,100952.50
2022-09-12T05:06:54.756Z,100948.19
2022-09-12T05:09:22.471Z,100955.03
2022-09-12T05:12:05.963Z,100951.53
2022-09-12T05:14:34.899Z,100951.69
2022-09-12T05:17:05.925Z,100948.94
2022-09-12T05:19:33.964Z,100944.63
2022-09-12T05:22:01.741Z,100950.56
2022-09-12T05:24:29.434Z,100939.31
2022-09-12T05:26:57.257Z,100948.69
2022-09-12T05:29:25.580Z,100940.81
2022-09-12T05:31:53.411Z,100953.97
2022-09-12T05:34:23.313Z,100953.78
2022-09-12T05:36:51.107Z,100950.91
2022-09-12T05:39:18.806Z,100956.09
2022-09-12T05:41:47.264Z,100953.22
2022-09-12T05:44:15.796Z,100954.88
2022-09-12T05:46:45.194Z,100950.16
2022-09-12T05:49:14.606Z,100950.69
2022-09-12T05:51:46.080Z,100952.06
2022-09-12T05:54:17.793Z,100960.13
2022-09-12T05:56:46.132Z,100956.91
2022-09-12T05:59:15.592Z,100956.81
2022-09-12T06:01:43.882Z,100960.63
2022-09-12T06:04:12.306Z,100974.47
2022-09-12T06:06:43.430Z,100968.59
2022-09-12T06:09:13.485Z,100971.31
2022-09-12T06:11:41.823Z,100966.28
2022-09-12T06:14:10.785Z,100970.31
2022-09-12T06:16:39.262Z,100969.66
2022-09-12T06:19:08.564Z,100965.63
2022-09-12T06:21:37.762Z,100967.78
2022-09-12T06:24:05.656Z,100972.66
2022-09-12T06:26:34.922Z,100972.50
2022-09-12T06:29:02.952Z,100971.41
2022-09-12T06:31:33.129Z,100978.09
2022-09-12T06:34:02.581Z,100968.13
2022-09-12T06:36:32.385Z,100968.06
2022-09-12T06:39:02.236Z,100962.66
2022-09-12T06:41:31.191Z,100959.09
2022-09-12T06:44:01.080Z,100973.38
2022-09-12T06:46:30.884Z,100982.81
2022-09-12T06:49:00.546Z,100973.06
2022-09-12T06:51:29.423Z,100981.56
2022-09-12T06:53:58.500Z,100982.56
2022-09-12T06:56:28.427Z,100982.50
2022-09-12T06:58:57.761Z,100974.84
2022-09-12T07:01:29.069Z,100965.56
2022-09-12T07:03:58.749Z,100972.25
2022-09-12T07:06:31.788Z,100973.31
2022-09-12T07:09:00.890Z,100969.75
2022-09-12T07:11:31.795Z,100971.09
2022-09-12T07:14:00.704Z,100974.13
2022-09-12T07:16:30.601Z,100971.94
2022-09-12T07:18:59.508Z,100964.09
2022-09-12T07:21:27.992Z,100967.78
2022-09-12T07:23:57.766Z,100975.03
2022-09-12T07:26:26.403Z,100979.63
2022-09-12T07:29:00.691Z,100978.81
2022-09-12T07:31:42.309Z,100979.75
2022-09-12T07:34:10.214Z,100981.16
2022-09-12T07:36:39.102Z,100985.97
2022-09-12T07:39:06.985Z,100990.25
2022-09-12T07:41:34.979Z,100980.34
2022-09-12T07:44:04.478Z,100979.63
2022-09-12T07:46:33.288Z,100981.31
2022-09-12T07:49:03.050Z,100972.88
2022-09-12T07:51:31.943Z,100977.41
2022-09-12T07:54:00.350Z,100970.38
2022-09-12T07:56:32.036Z,100974.69
2022-09-12T07:59:02.537Z,100966.19
2022-09-12T08:01:30.933Z,100983.28
2022-09-12T08:03:59.945Z,100982.06
2022-09-12T08:06:33.706Z,100991.13
2022-09-12T08:09:01.895Z,100981.78
2022-09-12T08:11:30.827Z,100985.13
2022-09-12T08:13:59.096Z,100982.41
2022-09-12T08:16:30.271Z,100985.94
2022-09-12T08:18:58.400Z,100994.81
2022-09-12T08:21:28.515Z,100987.78
2022-09-12T08:24:00.675Z,100983.09
2022-09-12T08:26:28.770Z,100984.94
2022-09-12T08:28:56.523Z,100985.19
2022-09-12T08:31:26.716Z,100976.22
2022-09-12T08:33:57.400Z,100982.09
2022-09-12T08:36:27.972Z,100982.94
2022-09-12T08:38:59.992Z,100975.34
2022-09-12T08:41:32.819Z,100973.69
2022-09-12T08:44:27.210Z,100978.00
2022-09-12T08:47:12.377Z,100984.78
2022-09-12T08:49:48.901Z,100982.56
2022-09-12T08:52:22.936Z,100978.47
2022-09-12T08:54:52.262Z,100978.47
2022-09-12T08:57:20.295Z,100975.16
2022-09-12T08:59:48.328Z,100968.78
2022-09-12T09:02:46.922Z,100978.47
2022-09-12T09:05:23.226Z,100970.69
2022-09-12T09:08:10.625Z,100971.69
2022-09-12T09:10:48.800Z,100965.66
2022-09-12T09:13:42.195Z,100971.31
2022-09-12T09:16:15.670Z,100966.06
2022-09-12T09:18:45.519Z,100964.31
2022-09-12T09:21:22.525Z,100966.88
2022-09-12T09:23:56.037Z,100961.16
2022-09-12T09:26:31.606Z,100954.69
2022-09-12T09:29:04.219Z,100951.81
2022-09-12T09:31:38.527Z,100945.81
2022-09-12T09:34:16.133Z,100937.91
2022-09-12T09:36:51.442Z,100941.28
2022-09-12T09:39:35.484Z,100940.31
2022-09-12T09:42:16.958Z,100935.03
2022-09-12T09:44:48.283Z,100936.34
2022-09-12T09:47:16.762Z,100932.84
2022-09-12T09:49:44.503Z,100931.44
2022-09-12T09:52:16.244Z,100929.00
2022-09-12T09:54:49.422Z,100925.28
2022-09-12T09:57:41.009Z,100929.81
2022-09-12T10:00:25.770Z,100921.19
2022-09-12T10:03:23.267Z,100915.72
2022-09-12T10:05:53.074Z,100911.31
2022-09-12T10:08:22.864Z,100916.50
2022-09-12T10:10:59.573Z,100912.03
2022-09-12T10:13:36.262Z,100906.00
2022-09-12T10:16:06.577Z,100907.31
2022-09-12T10:18:42.307Z,100907.47
2022-09-12T10:21:20.639Z,100901.03
2022-09-12T10:23:52.346Z,100900.06
2022-09-12T10:26:21.650Z,100896.00
2022-09-12T10:28:54.467Z,100905.53
2022-09-12T10:31:29.058Z,100892.50
2022-09-12T10:34:00.160Z,100892.44
2022-09-12T10:36:38.403Z,100887.13
2022-09-12T10:39:07.039Z,100881.53
2022-09-12T10:41:40.446Z,100875.00
2022-09-12T10:44:16.617Z,100874.47
2022-09-12T10:46:44.599Z,100876.97
2022-09-12T10:49:31.370Z,100886.31
2022-09-12T10:52:17.837Z,100876.78
2022-09-12T10:54:46.440Z,100881.38
2022-09-12T10:57:44.044Z,100878.97
2022-09-12T11:00:17.445Z,100871.69
2022-09-12T11:03:07.455Z,100874.41
2022-09-12T11:05:55.216Z,100862.25
2022-09-12T11:08:59.502Z,100852.78
2022-09-12T11:11:51.526Z,100859.19
2022-09-12T11:14:31.726Z,100857.56
2022-09-12T11:17:13.646Z,100856.97
2022-09-12T11:20:17.154Z,100845.00
2022-09-12T11:23:11.844Z,100836.94
2022-09-12T11:25:48.451Z,100829.13
2022-09-12T11:28:28.211Z,100834.06
2022-09-12T11:31:13.846Z,100831.59
2022-09-12T11:33:46.316Z,100830.16
2022-09-12T11:36:28.218Z,100818.19
2022-09-12T11:39:15.349Z,100823.66
2022-09-12T11:41:47.917Z,100819.34
2022-09-12T11:44:23.046Z,100822.31
2022-09-12T11:46:52.092Z,100810.44
2022-09-12T11:49:34.773Z,100805.72
2022-09-12T11:52:08.152Z,100814.72
2022-09-12T11:54:43.255Z,100823.59
2022-09-12T11:57:18.290Z,100813.66
2022-09-12T11:59:52.805Z,100800.53
2022-09-12T12:02:27.647Z,100804.66
2022-09-12T12:05:15.986Z,100798.91
2022-09-12T12:07:52.387Z,100794.44
2022-09-12T12:10:28.344Z,100796.72
2022-09-12T12:12:58.440Z,100790.72
2022-09-12T12:15:28.358Z,100794.44
2022-09-12T12:18:08.748Z,100800.16
2022-09-12T12:20:38.050Z,100795.88
2022-09-12T12:23:05.830Z,100793.66
2022-09-12T12:25:42.935Z,100789.94
2022-09-12T12:28:10.740Z,100784.09
2022-09-12T12:31:03.301Z,100785.38
2022-09-12T12:34:16.302Z,100779.97
2022-09-12T12:36:48.960Z,100784.66
2022-09-12T12:40:00.770Z,100774.34
2022-09-12T12:43:31.910Z,100767.78
2022-09-12T12:46:12.402Z,100756.47
2022-09-12T12:49:03.298Z,100756.19
2022-09-12T12:51:56.950Z,100747.78
2022-09-12T12:54:34.131Z,100747.13
2022-09-12T12:57:04.359Z,100735.91
2022-09-12T12:59:32.498Z,100735.19
2022-09-12T13:02:01.746Z,100740.81
2022-09-12T13:04:33.934Z,100742.47
2022-09-12T13:07:08.506Z,100741.66
2022-09-12T13:09:40.527Z,100719.88
2022-09-12T13:12:12.279Z,100709.00
2022-09-12T13:14:59.352Z,100712.44
2022-09-12T13:17:31.730Z,100712.75
2022-09-12T13:20:28.409Z,100703.25
2022-09-12T13:22:58.873Z,100703.25
2022-09-12T13:25:30.614Z,100705.47
2022-09-12T13:28:06.035Z,100706.19
2022-09-12T13:30:35.636Z,100699.38
2022-09-12T13:33:17.761Z,100697.63
2022-09-12T13:36:09.736Z,100700.78
2022-09-12T13:38:51.409Z,100695.41
2022-09-12T13:41:37.709Z,100686.50
2022-09-12T13:44:10.013Z,100693.44
2022-09-12T13:46:38.332Z,100687.19
2022-09-12T13:49:16.942Z,100690.47
2022-09-12T13:51:44.849Z,100674.03
2022-09-12T13:54:23.911Z,100685.19
2022-09-12T13:56:52.388Z,100681.28
2022-09-12T13:59:20.155Z,100678.78
2022-09-12T14:01:49.197Z,100685.19
2022-09-12T14:04:37.491Z,100684.19
2022-09-12T14:07:14.620Z,100682.03
2022-09-12T14:09:45.499Z,100673.41
2022-09-12T14:12:20.510Z,100673.53
2022-09-12T14:14:50.936Z,100679.28
2022-09-12T14:17:23.788Z,100679.69
2022-09-12T14:19:52.585Z,100668.81
2022-09-12T14:22:20.597Z,100656.63
2022-09-12T14:24:51.752Z,100655.16
2022-09-12T14:27:23.864Z,100653.50
2022-09-12T14:29:53.869Z,100655.19
2022-09-12T14:32:25.056Z,100644.78
2022-09-12T14:35:06.259Z,100638.97
2022-09-12T14:37:34.116Z,100635.47
2022-09-12T14:40:04.941Z,100640.28
2022-09-12T14:42:33.532Z,100644.66
2022-09-12T14:45:03.349Z,100628.94
2022-09-12T14:47:39.576Z,100625.72
2022-09-12T14:50:17.467Z,100620.56
2022-09-12T14:52:45.555Z,100623.91
2022-09-12T14:55:33.706Z,100612.75
2022-09-12T14:58:17.369Z,100612.00
2022-09-12T15:01:00.311Z,100607.97
2022-09-12T15:03:31.786Z,100604.41
2022-09-12T15:06:01.169Z,100598.66
2022-09-12T15:08:28.969Z,100594.03
2022-09-12T15:10:58.958Z,100596.00
2022-09-12T15:13:27.998Z,100593.34
2022-09-12T15:15:57.224Z,100603.53
2022-09-12T15:18:26.897Z,100600.88
2022-09-12T15:20:56.892Z,100593.44
2022-09-12T15:23:33.058Z,100591.28
2022-09-12T15:26:02.405Z,100600.41
2022-09-12T15:28:32.137Z,100599.31
2022-09-12T15:31:06.802Z,100601.56
2022-09-12T15:33:34.529Z,100599.16
2022-09-12T15:36:02.496Z,100598.78
2022-09-12T15:38:30.232Z,100595.50
2022-09-12T15:40:58.271Z,100589.44
2022-09-12T15:43:27.312Z,100592.19
2022-09-12T15:45:55.413Z,100583.66
2022-09-12T15:48:23.399Z,100588.63
2022-09-12T15:50:51.109Z,100581.81
2022-09-12T15:53:19.235Z,100580.09
2022-09-12T15:55:46.946Z,100575.50
2022-09-12T15:58:14.729Z,100572.56
2022-09-12T16:00:43.861Z,100573.22
2022-09-12T16:03:22.640Z,100563.59
2022-09-12T16:05:51.476Z,100560.56
2022-09-12T16:08:19.267Z,100561.78
2022-09-12T16:10:50.624Z,100562.41
2022-09-12T16:13:18.370Z,100562.66
2022-09-12T16:15:47.494Z,100553.66
2022-09-12T16:18:15.770Z,100554.34
2022-09-12T16:20:43.897Z,100557.28
2022-09-12T16:23:12.987Z,100550.63
2022-09-12T16:25:40.974Z,100546.47
2022-09-12T16:28:08.828Z,100548.94
2022-09-12T16:30:37.217Z,100556.94
2022-09-12T16:33:06.580Z,100547.59
2022-09-12T16:35:34.317Z,100537.75
2022-09-12T16:38:02.384Z,100549.69
2022-09-12T16:40:31.042Z,100538.09
2022-09-12T16:42:58.782Z,100533.75
2022-09-12T16:45:26.620Z,100537.75
2022-09-12T16:47:54.309Z,100529.13
2022-09-12T16:50:23.754Z,100509.66
2022-09-12T16:52:51.565Z,100510.38
2022-09-12T16:55:19.270Z,100516.72
2022-09-12T16:57:49.297Z,100518.91
2022-09-12T17:00:17.413Z,100522.19
2022-09-12T17:02:45.306Z,100531.19
2022-09-12T17:05:13.407Z,100529.97
2022-09-12T17:07:43.039Z,100522.78
2022-09-12T17:10:11.253Z,100516.81
2022-09-12T17:12:38.995Z,100508.78
2022-09-12T17:15:08.080Z,100514.00
2022-09-12T17:17:35.773Z,100509.66
2022-09-12T17:20:03.607Z,100510.25
2022-09-12T17:22:31.356Z,100513.03
2022-09-12T17:25:00.406Z,100509.13
2022-09-12T17:27:28.393Z,100510.72
2022-09-12T17:29:56.133Z,100501.78
2022-09-12T17:32:23.895Z,100500.47
2022-09-12T17:34:51.730Z,100511.25
2022-09-12T17:37:19.537Z,100511.38
2022-09-12T17:39:47.592Z,100507.34
2022-09-12T17:42:16.707Z,100504.88
2022-09-12T17:44:44.429Z,100502.53
2022-09-12T17:47:12.185Z,100503.00
2022-09-12T17:49:40.245Z,100507.47
2022-09-12T17:54:35.862Z,100510.75
2022-09-12T17:57:04.973Z,100518.72
2022-09-12T17:59:34.252Z,100513.50
2022-09-12T18:02:12.985Z,100516.19
2022-09-12T18:04:41.638Z,100514.69
2022-09-12T18:07:09.396Z,100517.38
2022-09-12T18:09:37.315Z,100516.06
2022-09-12T18:12:06.385Z,100517.69
2022-09-12T18:14:35.548Z,100511.63
2022-09-12T18:17:03.258Z,100509.84
2022-09-12T18:19:31.923Z,100515.50
2022-09-12T18:21:59.637Z,100513.69
2022-09-12T18:24:27.407Z,100517.88
2022-09-12T18:26:56.554Z,100513.69
2022-09-12T18:29:24.639Z,100514.97
2022-09-12T18:31:53.701Z,100509.56
2022-09-12T18:34:21.543Z,100504.03
2022-09-12T18:36:51.477Z,100500.69
2022-09-12T18:39:21.951Z,100496.88
2022-09-12T18:41:51.897Z,100497.19
2022-09-12T18:44:19.679Z,100496.53
2022-09-12T18:46:47.502Z,100502.28
2022-09-12T18:49:16.676Z,100500.84
2022-09-12T18:51:44.735Z,100505.97
2022-09-12T18:54:14.126Z,100502.13
2022-09-12T18:56:43.871Z,100508.91
2022-09-12T18:59:14.262Z,100508.69
2022-09-12T19:01:42.688Z,100514.50
2022-09-12T19:04:12.705Z,100504.66
2022-09-12T19:06:43.738Z,100501.59
2022-09-12T19:09:13.140Z,100510.94
2022-09-12T19:11:48.495Z,100509.53
2022-09-12T19:14:16.675Z,100514.59
2022-09-12T19:16:44.664Z,100507.38
2022-09-12T19:19:12.384Z,100502.38
2022-09-12T19:21:42.302Z,100497.44
2022-09-12T19:24:10.993Z,100499.44
2022-09-12T19:26:40.140Z,100491.09
2022-09-12T19:29:08.759Z,100496.78
2022-09-12T19:31:36.927Z,100497.56
2022-09-12T19:34:07.055Z,100493.19
2022-09-12T19:36:51.183Z,100490.84
2022-09-12T19:39:20.557Z,100487.91
2022-09-12T19:41:49.215Z,100480.41
2022-09-12T19:44:19.298Z,100485.91
2022-09-12T19:46:47.164Z,100485.81
2022-09-12T19:49:15.049Z,100479.09
2022-09-12T19:51:43.785Z,100474.53
2022-09-12T19:54:11.637Z,100477.06
2022-09-12T19:56:40.861Z,100466.63
2022-09-12T19:59:08.707Z,100480.84
2022-09-12T20:01:37.596Z,100475.34
2022-09-12T20:04:06.476Z,100478.56
2022-09-12T20:06:34.419Z,100471.75
2022-09-12T20:09:02.402Z,100478.66
2022-09-12T20:11:31.026Z,100472.19
2022-09-12T20:14:00.149Z,100476.28
2022-09-12T20:16:29.542Z,100480.63
2022-09-12T20:18:59.511Z,100476.38
2022-09-12T20:21:31.727Z,100483.13
2022-09-12T20:24:05.316Z,100481.03
2022-09-12T20:26:33.975Z,100488.06
2022-09-12T20:29:03.595Z,100482.63
2022-09-12T20:31:31.992Z,100492.28
2022-09-12T20:34:00.393Z,100491.41
2022-09-12T20:36:28.400Z,100486.91
2022-09-12T20:38:57.988Z,100488.00
2022-09-12T20:41:26.993Z,100490.72
2022-09-12T20:43:56.355Z,100486.47
2022-09-12T20:46:27.581Z,100480.66
2022-09-12T20:48:55.732Z,100484.59
2022-09-12T20:51:26.557Z,100479.31
2022-09-12T20:53:55.272Z,100481.38
2022-09-12T20:56:23.660Z,100475.41
2022-09-12T20:58:51.793Z,100472.50
2022-09-12T21:01:20.362Z,100470.00
2022-09-12T21:03:50.103Z,100471.31
2022-09-12T21:06:19.071Z,100475.16
2022-09-12T21:08:48.884Z,100469.34
2022-09-12T21:11:17.357Z,100468.47
2022-09-12T21:13:45.864Z,100473.69
2022-09-12T21:16:15.485Z,100475.91
2022-09-12T21:18:43.383Z,100474.53
2022-09-12T21:21:14.194Z,100468.84
2022-09-12T21:23:42.422Z,100471.56
2022-09-12T21:26:10.509Z,100474.34
2022-09-12T21:28:38.288Z,100475.09
2022-09-12T21:31:06.665Z,100469.72
2022-09-12T21:33:34.563Z,100468.34
2022-09-12T21:36:03.816Z,100460.81
2022-09-12T21:38:33.365Z,100451.41
2022-09-12T21:41:05.678Z,100445.25
2022-09-12T21:43:33.681Z,100446.03
2022-09-12T21:46:02.412Z,100439.63
2022-09-12T21:48:30.751Z,100448.53
2022-09-12T21:50:58.676Z,100448.69
2022-09-12T21:53:27.226Z,100445.00
2022-09-12T21:56:01.088Z,100450.66
2022-09-12T21:58:29.076Z,100448.88
2022-09-12T22:00:56.937Z,100451.69
2022-09-12T22:03:26.099Z,100448.38
2022-09-12T22:05:58.042Z,100445.72
2022-09-12T22:08:26.098Z,100452.84
2022-09-12T22:10:53.896Z,100440.00
2022-09-12T22:13:22.988Z,100438.56
2022-09-12T22:15:51.908Z,100443.84
2022-09-12T22:18:19.974Z,100434.53
2022-09-12T22:20:47.732Z,100433.59
2022-09-12T22:23:33.734Z,100438.72
2022-09-12T22:26:02.756Z,100440.75
2022-09-12T22:28:32.198Z,100445.88
2022-09-12T22:30:59.960Z,100446.91
2022-09-12T22:33:28.560Z,100454.69
2022-09-12T22:35:56.475Z,100447.50
2022-09-12T22:38:26.016Z,100439.78
2022-09-12T22:40:53.882Z,100440.81
2022-09-12T22:43:22.004Z,100442.53
2022-09-12T22:45:51.351Z,100442.44
2022-09-12T22:48:19.071Z,100444.22
2022-09-12T22:50:46.789Z,100449.69
2022-09-12T22:53:14.564Z,100455.72
2022-09-12T22:55:44.114Z,100457.66
2022-09-12T22:58:12.093Z,100461.13
2022-09-12T23:00:40.164Z,100467.38
2022-09-12T23:03:09.310Z,100457.50
2022-09-12T23:05:37.784Z,100453.38
2022-09-12T23:08:05.590Z,100461.09
2022-09-12T23:10:36.212Z,100462.31
2022-09-12T23:13:04.508Z,100464.91
2022-09-12T23:15:32.490Z,100459.59
2022-09-12T23:18:00.735Z,100462.56
2022-09-12T23:20:30.272Z,100467.94
2022-09-12T23:22:57.996Z,100469.56
2022-09-12T23:25:26.157Z,100461.50
2022-09-12T23:27:53.975Z,100458.75
2022-09-12T23:30:22.204Z,100450.97
2022-09-12T23:32:50.358Z,100456.81
2022-09-12T23:35:19.391Z,100461.91
2022-09-12T23:37:48.696Z,100459.50
2022-09-12T23:40:17.236Z,100446.28
2022-09-12T23:42:44.981Z,100438.66
2022-09-12T23:45:12.734Z,100433.69
2022-09-12T23:47:40.563Z,100442.47
2022-09-12T23:50:08.817Z,100442.94
2022-09-12T23:52:37.053Z,100442.94
2022-09-12T23:55:07.279Z,100438.56
2022-09-12T23:57:35.129Z,100443.31
